Time;durP1;ratioP1;P1;durP2;ratioP2;P2;SDS_P1;SDS_P2;PMS_P1;PMS_P2;Temp;Humidity;BMP_temperature;BMP_pressure;BME280_temperature;BME280_humidity;BME280_pressure;Samples;Min_cycle;Max_cycle;Signal;HPM_P1;HPM_P2
2022/04/04 00:01:45;;;;;;;16.52;10.95;;;-0.20;80.50;;;;;;5136859;27;20198;-60
2022/04/04 00:04:12;;;;;;;17.30;12.05;;;-0.30;81.10;;;;;;5136643;27;20285;-60
2022/04/04 00:06:40;;;;;;;14.70;11.63;;;-0.40;81.60;;;;;;5136633;27;20199;-60
2022/04/04 00:09:06;;;;;;;13.55;10.98;;;-0.40;81.50;;;;;;5136734;27;20245;-58
2022/04/04 00:11:33;;;;;;;13.20;10.80;;;-0.40;81.60;;;;;;5135480;27;20234;-58
2022/04/04 00:14:03;;;;;;;15.70;10.90;;;-0.40;81.80;;;;;;5136638;27;20209;-58
2022/04/04 00:16:29;;;;;;;15.48;11.10;;;-0.50;81.90;;;;;;5136389;27;20223;-60
2022/04/04 00:18:56;;;;;;;16.05;11.30;;;-0.60;82.40;;;;;;5136605;27;20536;-58
2022/04/04 00:21:23;;;;;;;16.70;11.20;;;-0.70;82.80;;;;;;5136414;27;20199;-59
2022/04/04 00:23:50;;;;;;;15.02;10.95;;;-0.80;83.10;;;;;;5136548;27;20289;-58
2022/04/04 00:26:17;;;;;;;15.10;11.93;;;-0.80;83.30;;;;;;5135083;27;20203;-58
2022/04/04 00:28:43;;;;;;;12.90;10.13;;;-0.70;83.40;;;;;;5136430;27;20195;-59
2022/04/04 00:31:12;;;;;;;13.75;10.65;;;-0.80;83.30;;;;;;5136081;27;20325;-58
2022/04/04 00:33:38;;;;;;;11.38;9.68;;;-0.80;83.30;;;;;;5136362;27;20293;-58
2022/04/04 00:36:06;;;;;;;12.82;10.85;;;-0.80;83.30;;;;;;5136112;27;20203;-61
2022/04/04 00:38:33;;;;;;;12.48;10.90;;;-0.90;83.40;;;;;;5136128;27;20771;-60
2022/04/04 00:41:00;;;;;;;12.02;10.73;;;-1.00;83.60;;;;;;5136074;27;20209;-61
2022/04/04 00:43:27;;;;;;;14.98;10.55;;;-1.00;83.70;;;;;;5135102;27;20603;-62
2022/04/04 00:45:54;;;;;;;15.10;11.35;;;-1.00;83.60;;;;;;5136125;27;20209;-61
2022/04/04 00:48:22;;;;;;;12.57;10.57;;;-1.00;83.40;;;;;;5136116;27;20695;-59
2022/04/04 00:50:49;;;;;;;15.45;9.80;;;-1.00;83.20;;;;;;5135774;27;20297;-59
2022/04/04 00:53:16;;;;;;;13.38;10.68;;;-1.00;83.10;;;;;;5135862;27;20285;-59
2022/04/04 00:55:43;;;;;;;11.13;9.85;;;-0.90;82.80;;;;;;5135950;27;20587;-59
2022/04/04 00:58:13;;;;;;;17.48;10.93;;;-0.80;82.00;;;;;;5134370;27;20711;-58
2022/04/04 01:00:40;;;;;;;12.15;10.25;;;-0.80;81.90;;;;;;5135834;27;20205;-58
2022/04/04 01:03:07;;;;;;;13.30;9.77;;;-0.70;81.90;;;;;;5135147;27;20726;-58
2022/04/04 01:05:35;;;;;;;11.32;9.30;;;-0.70;81.70;;;;;;5135440;27;20323;-60
2022/04/04 01:08:02;;;;;;;11.68;9.73;;;-0.70;81.10;;;;;;5135718;27;20286;-60
2022/04/04 01:10:30;;;;;;;12.23;9.23;;;-0.70;80.80;;;;;;5135535;27;20289;-60
2022/04/04 01:12:57;;;;;;;11.10;10.00;;;-0.70;80.60;;;;;;5134081;27;20202;-61
2022/04/04 01:15:30;;;;;;;12.02;10.18;;;-0.70;80.40;;;;;;5135292;27;20199;-61
2022/04/04 01:17:57;;;;;;;11.63;9.93;;;-0.70;80.60;;;;;;5135273;27;20700;-61
2022/04/04 01:20:23;;;;;;;10.38;9.05;;;-0.70;80.50;;;;;;5135152;27;20217;-61
2022/04/04 01:22:52;;;;;;;11.02;9.98;;;-0.70;80.40;;;;;;5135234;27;20203;-60
2022/04/04 01:25:24;;;;;;;11.10;10.10;;;-0.80;80.80;;;;;;5135105;27;20552;-61
2022/04/04 01:27:51;;;;;;;11.18;9.98;;;-0.80;80.90;;;;;;5133846;27;20203;-61
2022/04/04 01:30:18;;;;;;;11.90;9.75;;;-0.80;80.40;;;;;;5135167;27;20230;-60
2022/04/04 01:32:45;;;;;;;10.40;9.32;;;-0.80;80.20;;;;;;5135076;27;20672;-60
2022/04/04 01:35:13;;;;;;;11.32;10.10;;;-0.70;79.60;;;;;;5135012;27;20282;-61
2022/04/04 01:37:40;;;;;;;11.93;9.73;;;-0.80;79.50;;;;;;5135060;27;20235;-60
2022/04/04 01:40:10;;;;;;;11.73;9.73;;;-0.80;79.40;;;;;;5134882;27;20202;-62
2022/04/04 01:42:39;;;;;;;10.73;9.57;;;-0.80;79.30;;;;;;5133599;27;20195;-61
2022/04/04 01:45:07;;;;;;;10.48;9.45;;;-0.80;79.00;;;;;;5134921;27;20291;-61
2022/04/04 01:47:34;;;;;;;11.77;10.60;;;-0.80;79.10;;;;;;5135048;27;20282;-60
2022/04/04 01:50:01;;;;;;;11.02;9.73;;;-0.80;78.90;;;;;;5134862;27;20203;-61
2022/04/04 01:52:28;;;;;;;12.27;9.50;;;-0.80;78.90;;;;;;5134481;27;20245;-60
2022/04/04 01:54:55;;;;;;;10.55;9.55;;;-0.80;79.00;;;;;;5134636;27;20199;-60
2022/04/04 01:57:22;;;;;;;10.60;9.55;;;-0.80;78.80;;;;;;5133245;27;20226;-60
2022/04/04 01:59:50;;;;;;;10.40;9.50;;;-0.80;78.50;;;;;;5134707;27;20596;-62
2022/04/04 02:02:17;;;;;;;13.05;10.60;;;-0.80;78.90;;;;;;5134484;27;20237;-62
2022/04/04 02:04:44;;;;;;;10.65;9.65;;;-0.80;78.40;;;;;;5134400;27;20301;-61
2022/04/04 02:07:11;;;;;;;12.02;10.77;;;-0.70;78.60;;;;;;5134238;27;20234;-60
2022/04/04 02:09:38;;;;;;;10.55;9.55;;;-0.70;78.50;;;;;;5134481;27;20287;-60
2022/04/04 02:12:06;;;;;;;12.15;10.95;;;-0.70;77.80;;;;;;5133004;27;20564;-61
2022/04/04 02:14:34;;;;;;;11.15;10.00;;;-0.70;77.60;;;;;;5134043;27;20280;-60
2022/04/04 02:17:02;;;;;;;11.40;10.27;;;-0.70;77.30;;;;;;5134055;27;20266;-61
2022/04/04 02:19:29;;;;;;;11.60;10.40;;;-0.70;76.50;;;;;;5134224;27;20728;-60
2022/04/04 02:21:56;;;;;;;11.35;10.18;;;-0.70;76.80;;;;;;5133905;27;20233;-61
2022/04/04 02:24:23;;;;;;;12.05;10.95;;;-0.70;76.40;;;;;;5134222;27;20206;-61
2022/04/04 02:26:50;;;;;;;12.73;10.82;;;-0.60;76.00;;;;;;5132898;27;20287;-60
2022/04/04 02:29:17;;;;;;;11.52;9.80;;;-0.60;76.00;;;;;;5134068;27;20679;-60
2022/04/04 02:31:44;;;;;;;12.18;10.85;;;-0.50;75.80;;;;;;5134082;27;20631;-60
2022/04/04 02:34:12;;;;;;;11.15;10.15;;;-0.60;75.30;;;;;;5133898;27;20687;-60
2022/04/04 02:36:39;;;;;;;12.25;10.38;;;-0.60;75.00;;;;;;5133992;27;20214;-58
2022/04/04 02:39:06;;;;;;;10.48;9.38;;;-0.60;74.90;;;;;;5133889;27;20227;-59
2022/04/04 02:41:33;;;;;;;10.00;9.10;;;-0.50;74.40;;;;;;5132754;27;20209;-62
2022/04/04 02:43:59;;;;;;;11.20;10.10;;;-0.60;73.40;;;;;;5133982;27;20233;-61
2022/04/04 02:46:26;;;;;;;11.00;8.93;;;-0.70;73.60;;;;;;5133905;27;20224;-61
2022/04/04 02:48:53;;;;;;;11.55;8.57;;;-0.70;73.10;;;;;;5133720;27;20207;-61
2022/04/04 02:51:21;;;;;;;9.70;9.00;;;-0.80;72.10;;;;;;5133738;27;20241;-59
2022/04/04 02:53:48;;;;;;;9.93;9.05;;;-0.80;72.10;;;;;;5133870;27;20229;-60
2022/04/04 02:56:29;;;;;;;10.77;9.77;;;-0.80;71.80;;;;;;5132500;27;20209;-59
2022/04/04 02:58:57;;;;;;;10.10;9.30;;;-0.80;71.60;;;;;;5133742;27;20234;-61
2022/04/04 03:01:24;;;;;;;9.15;8.25;;;-0.80;72.00;;;;;;5133649;27;20546;-60
2022/04/04 03:03:51;;;;;;;9.38;8.48;;;-0.80;72.30;;;;;;5133710;27;20219;-59
2022/04/04 03:06:18;;;;;;;11.07;10.10;;;-0.80;72.10;;;;;;5133580;27;20205;-59
2022/04/04 03:08:46;;;;;;;11.90;10.80;;;-0.80;72.40;;;;;;5133937;27;20209;-59
2022/04/04 03:11:13;;;;;;;11.13;10.02;;;-0.90;75.20;;;;;;5132319;27;20290;-61
2022/04/04 03:13:40;;;;;;;11.65;10.55;;;-0.90;74.90;;;;;;5133829;27;20203;-58
2022/04/04 03:16:07;;;;;;;11.65;10.45;;;-1.00;76.00;;;;;;5133600;27;20209;-60
2022/04/04 03:18:35;;;;;;;12.40;11.30;;;-1.00;75.20;;;;;;5133425;27;20702;-58
2022/04/04 03:21:03;;;;;;;12.85;11.30;;;-1.10;75.40;;;;;;5133461;27;20226;-59
2022/04/04 03:23:30;;;;;;;11.32;10.15;;;-1.10;74.90;;;;;;5133581;27;20203;-60
2022/04/04 03:25:58;;;;;;;11.77;8.40;;;-1.20;76.30;;;;;;5133611;27;20595;-60
2022/04/04 03:28:26;;;;;;;12.20;11.10;;;-1.30;76.80;;;;;;5136134;27;20202;-58
2022/04/04 03:30:53;;;;;;;13.20;11.95;;;-1.30;78.40;;;;;;5137284;27;20238;-58
2022/04/04 03:33:21;;;;;;;12.45;11.15;;;-1.30;78.90;;;;;;5137456;27;20198;-58
2022/04/04 03:35:48;;;;;;;11.68;10.52;;;-1.10;78.50;;;;;;5137367;27;20202;-58
2022/04/04 03:38:16;;;;;;;11.25;10.00;;;-1.10;76.90;;;;;;5137268;27;20660;-58
2022/04/04 03:40:43;;;;;;;13.60;12.13;;;-1.10;75.40;;;;;;5137209;27;20293;-59
2022/04/04 03:43:11;;;;;;;12.25;10.80;;;-1.10;76.80;;;;;;5135844;27;20220;-58
2022/04/04 03:45:38;;;;;;;14.18;12.68;;;-1.20;78.90;;;;;;5137159;27;20213;-58
2022/04/04 03:48:06;;;;;;;14.00;12.32;;;-1.20;78.10;;;;;;5137243;27;20205;-58
2022/04/04 03:50:33;;;;;;;15.95;12.00;;;-1.10;78.60;;;;;;5136994;27;20217;-59
2022/04/04 03:52:59;;;;;;;18.42;13.27;;;-1.20;78.50;;;;;;5136980;27;20230;-58
2022/04/04 03:55:28;;;;;;;16.50;12.20;;;-1.20;79.30;;;;;;5136956;27;20233;-58
2022/04/04 03:57:55;;;;;;;16.08;11.68;;;-1.30;78.90;;;;;;5135625;27;20553;-58
2022/04/04 04:00:25;;;;;;;18.17;11.90;;;-1.40;79.50;;;;;;5137210;27;20298;-58
2022/04/04 04:02:53;;;;;;;18.40;12.50;;;-1.40;80.20;;;;;;5136802;27;20293;-58
2022/04/04 04:05:20;;;;;;;13.85;10.75;;;-1.50;80.50;;;;;;5136713;27;20198;-58
2022/04/04 04:07:48;;;;;;;15.57;11.52;;;-1.50;80.50;;;;;;5136651;27;20203;-58
2022/04/04 04:10:15;;;;;;;13.52;11.27;;;-1.50;80.20;;;;;;5136504;27;20203;-58
2022/04/04 04:12:43;;;;;;;15.35;11.57;;;-1.50;79.80;;;;;;5135390;27;20203;-58
2022/04/04 04:15:12;;;;;;;15.50;11.85;;;-1.50;79.70;;;;;;5136508;27;20210;-58
2022/04/04 04:17:40;;;;;;;12.85;11.50;;;-1.70;80.60;;;;;;5136584;27;20205;-60
2022/04/04 04:20:20;;;;;;;12.10;10.90;;;-1.80;78.70;;;;;;5136603;27;20293;-61
2022/04/04 04:22:49;;;;;;;12.38;11.07;;;-1.80;80.40;;;;;;5136244;27;20230;-58
2022/04/04 04:25:16;;;;;;;12.52;10.45;;;-1.80;80.20;;;;;;5136309;27;20206;-60
2022/04/04 04:27:45;;;;;;;12.23;10.93;;;-1.90;80.00;;;;;;5135117;27;20206;-59
2022/04/04 04:30:13;;;;;;;12.23;10.90;;;-1.90;80.20;;;;;;5136195;27;20753;-58
2022/04/04 04:32:42;;;;;;;12.48;10.77;;;-1.90;80.00;;;;;;5136364;27;20286;-60
2022/04/04 04:35:11;;;;;;;12.30;11.13;;;-1.90;80.00;;;;;;5136054;27;20285;-60
2022/04/04 04:37:38;;;;;;;12.55;10.55;;;-2.00;80.00;;;;;;5135654;27;20216;-60
2022/04/04 04:40:06;;;;;;;12.70;10.65;;;-2.10;80.60;;;;;;5135671;27;20246;-61
2022/04/04 04:42:33;;;;;;;14.60;10.82;;;-2.20;80.70;;;;;;5134978;27;20211;-60
2022/04/04 04:45:00;;;;;;;12.30;10.85;;;-2.30;81.10;;;;;;5136282;27;20248;-60
2022/04/04 04:47:28;;;;;;;12.18;10.88;;;-2.30;81.40;;;;;;5135938;27;20198;-60
2022/04/04 04:49:56;;;;;;;12.55;11.30;;;-2.30;81.20;;;;;;5135757;27;20209;-60
2022/04/04 04:52:23;;;;;;;18.75;12.50;;;-2.20;81.00;;;;;;5135771;27;20682;-60
2022/04/04 04:54:50;;;;;;;13.95;10.80;;;-2.20;81.00;;;;;;5135974;27;20535;-60
2022/04/04 04:57:17;;;;;;;14.15;11.23;;;-2.20;80.70;;;;;;5134565;27;20209;-60
2022/04/04 04:59:44;;;;;;;15.43;11.80;;;-2.30;81.20;;;;;;5135609;27;20710;-60
2022/04/04 05:02:11;;;;;;;13.00;11.50;;;-2.30;81.20;;;;;;5135701;27;20206;-60
2022/04/04 05:04:38;;;;;;;14.20;11.05;;;-2.20;81.20;;;;;;5135721;27;20230;-60
2022/04/04 05:07:07;;;;;;;13.88;12.45;;;-2.20;80.90;;;;;;5135481;27;20195;-60
2022/04/04 05:09:35;;;;;;;11.38;9.38;;;-2.20;80.80;;;;;;5135576;27;20285;-60
2022/04/04 05:12:01;;;;;;;16.40;11.45;;;-2.20;80.90;;;;;;5134208;27;20249;-60
2022/04/04 05:14:28;;;;;;;13.05;11.27;;;-2.20;80.70;;;;;;5135580;27;20207;-60
2022/04/04 05:16:55;;;;;;;14.02;11.05;;;-2.20;80.90;;;;;;5135243;27;20226;-60
2022/04/04 05:19:23;;;;;;;16.08;11.48;;;-2.20;80.90;;;;;;5135110;27;20237;-60
2022/04/04 05:21:51;;;;;;;13.18;11.02;;;-2.30;81.20;;;;;;5135238;27;20202;-60
2022/04/04 05:24:19;;;;;;;14.90;11.23;;;-2.40;81.70;;;;;;5135179;27;20237;-60
2022/04/04 05:26:47;;;;;;;13.48;11.20;;;-2.50;82.30;;;;;;5133988;27;20625;-60
2022/04/04 05:29:15;;;;;;;15.55;11.52;;;-2.60;83.00;;;;;;5135061;27;20205;-60
2022/04/04 05:31:42;;;;;;;15.20;10.93;;;-2.60;83.20;;;;;;5134805;27;20226;-60
2022/04/04 05:34:09;;;;;;;16.13;11.90;;;-2.70;83.50;;;;;;5134905;27;20209;-60
2022/04/04 05:36:36;;;;;;;15.98;12.18;;;-2.70;84.20;;;;;;5134867;27;20660;-60
2022/04/04 05:39:04;;;;;;;14.65;11.82;;;-2.70;84.30;;;;;;5134769;27;20748;-60
2022/04/04 05:41:36;;;;;;;14.57;12.13;;;-2.70;84.00;;;;;;5133765;27;20307;-60
2022/04/04 05:44:03;;;;;;;16.02;12.10;;;-2.80;83.50;;;;;;5134822;27;20199;-60
2022/04/04 05:46:31;;;;;;;13.73;10.75;;;-2.90;83.60;;;;;;5134894;27;20198;-59
2022/04/04 05:48:58;;;;;;;11.95;9.90;;;-2.90;83.70;;;;;;5134594;27;20670;-60
2022/04/04 05:51:25;;;;;;;13.70;11.63;;;-2.90;83.80;;;;;;5133479;27;20267;-61
2022/04/04 05:53:52;;;;;;;14.27;10.93;;;-2.80;83.50;;;;;;5134671;27;20194;-60
2022/04/04 05:56:20;;;;;;;12.45;11.15;;;-2.80;83.50;;;;;;5133274;27;20686;-60
2022/04/04 05:58:48;;;;;;;17.15;11.82;;;-2.80;83.30;;;;;;5134504;27;20233;-61
2022/04/04 06:01:15;;;;;;;13.63;11.80;;;-2.80;83.20;;;;;;5134528;27;20198;-61
2022/04/04 06:03:42;;;;;;;12.45;11.00;;;-2.80;83.30;;;;;;5134474;27;20766;-59
2022/04/04 06:06:09;;;;;;;14.60;11.60;;;-2.80;83.50;;;;;;5134448;27;20630;-60
2022/04/04 06:08:36;;;;;;;13.40;11.02;;;-2.80;83.50;;;;;;5134306;27;20620;-60
2022/04/04 06:11:03;;;;;;;12.25;11.00;;;-2.70;83.20;;;;;;5133751;27;20657;-60
2022/04/04 06:13:30;;;;;;;17.45;11.73;;;-2.70;82.90;;;;;;5133631;27;20198;-60
2022/04/04 06:15:59;;;;;;;11.63;10.43;;;-2.70;82.50;;;;;;5134219;27;20235;-60
2022/04/04 06:18:26;;;;;;;13.65;11.70;;;-2.70;83.10;;;;;;5134037;27;20696;-59
2022/04/04 06:20:53;;;;;;;14.05;11.02;;;-2.60;82.70;;;;;;5134015;27;20214;-60
2022/04/04 06:23:20;;;;;;;11.98;9.75;;;-2.50;82.70;;;;;;5134149;27;20221;-58
2022/04/04 06:25:49;;;;;;;15.10;11.23;;;-2.40;82.10;;;;;;5133919;27;20210;-59
2022/04/04 06:28:16;;;;;;;16.05;11.50;;;-2.40;82.50;;;;;;5132715;27;20239;-59
2022/04/04 06:30:44;;;;;;;12.43;10.68;;;-2.40;82.80;;;;;;5133770;27;20569;-60
2022/04/04 06:33:12;;;;;;;15.93;11.10;;;-2.40;82.40;;;;;;5134050;27;20557;-59
2022/04/04 06:35:39;;;;;;;14.98;11.60;;;-2.30;82.40;;;;;;5133908;27;20199;-59
2022/04/04 06:38:08;;;;;;;14.82;11.63;;;-2.30;82.00;;;;;;5133732;27;20225;-59
2022/04/04 06:40:35;;;;;;;13.52;11.35;;;-2.20;81.70;;;;;;5133560;27;20248;-60
2022/04/04 06:43:02;;;;;;;15.77;11.77;;;-2.10;81.70;;;;;;5132570;27;20298;-61
2022/04/04 06:45:29;;;;;;;16.90;12.02;;;-2.10;81.50;;;;;;5133804;27;20202;-60
2022/04/04 06:47:56;;;;;;;16.38;12.85;;;-2.00;81.50;;;;;;5133760;27;20195;-60
2022/04/04 06:50:24;;;;;;;13.50;11.00;;;-1.90;81.50;;;;;;5133708;27;20297;-60
2022/04/04 06:52:52;;;;;;;13.93;11.25;;;-1.90;80.70;;;;;;5133473;27;20294;-61
2022/04/04 06:55:20;;;;;;;12.43;10.98;;;-1.80;80.30;;;;;;5133672;27;20756;-60
2022/04/04 06:57:47;;;;;;;13.63;12.20;;;-1.70;80.10;;;;;;5132468;27;20657;-60
2022/04/04 07:00:16;;;;;;;13.65;11.23;;;-1.70;80.20;;;;;;5133644;27;20653;-59
2022/04/04 07:02:43;;;;;;;18.40;11.55;;;-1.60;79.40;;;;;;5136555;27;20225;-60
2022/04/04 07:05:10;;;;;;;16.20;12.18;;;-1.60;79.80;;;;;;5137797;27;20202;-60
2022/04/04 07:07:38;;;;;;;12.50;11.20;;;-1.40;80.10;;;;;;5137603;27;20198;-60
2022/04/04 07:10:06;;;;;;;13.05;10.30;;;-1.30;80.10;;;;;;5137859;27;20202;-59
2022/04/04 07:12:33;;;;;;;14.40;11.15;;;-1.10;79.50;;;;;;5136434;27;20208;-60
2022/04/04 07:15:00;;;;;;;16.95;11.63;;;-1.10;78.00;;;;;;5137663;27;20245;-58
2022/04/04 07:17:27;;;;;;;13.98;11.23;;;-0.90;77.70;;;;;;5137642;27;20203;-60
2022/04/04 07:19:54;;;;;;;14.50;12.13;;;-0.80;76.00;;;;;;5137472;27;20234;-59
2022/04/04 07:22:21;;;;;;;14.07;11.60;;;-0.60;76.20;;;;;;5137405;27;20297;-60
2022/04/04 07:24:50;;;;;;;11.93;10.60;;;-0.50;74.40;;;;;;5137590;27;20665;-59
2022/04/04 07:27:17;;;;;;;12.82;11.70;;;-0.40;74.90;;;;;;5136278;27;20213;-60
2022/04/04 07:29:44;;;;;;;13.30;11.73;;;-0.30;75.60;;;;;;5137279;27;20203;-59
2022/04/04 07:32:10;;;;;;;10.82;9.82;;;-0.20;74.00;;;;;;5137598;27;20210;-60
2022/04/04 07:34:38;;;;;;;16.05;10.65;;;-0.10;75.00;;;;;;5137272;27;20573;-58
2022/04/04 07:37:05;;;;;;;13.43;12.02;;;0.10;74.00;;;;;;5137152;27;20675;-58
2022/04/04 07:39:33;;;;;;;12.65;11.35;;;0.20;73.90;;;;;;5137156;27;20222;-57
2022/04/04 07:42:01;;;;;;;13.57;12.07;;;0.30;73.00;;;;;;5135784;27;20653;-58
2022/04/04 07:44:28;;;;;;;12.73;11.55;;;0.40;72.50;;;;;;5137140;27;20254;-59
2022/04/04 07:46:55;;;;;;;12.85;11.65;;;0.50;72.30;;;;;;5137187;27;20282;-59
2022/04/04 07:49:22;;;;;;;13.88;11.52;;;0.50;72.10;;;;;;5136789;27;20203;-59
2022/04/04 07:51:48;;;;;;;13.35;12.13;;;0.60;71.10;;;;;;5136760;27;20294;-58
2022/04/04 07:54:15;;;;;;;13.25;11.85;;;0.70;72.50;;;;;;5136855;27;20209;-57
2022/04/04 07:56:43;;;;;;;14.07;12.60;;;1.00;72.10;;;;;;5135547;27;20233;-57
2022/04/04 07:59:12;;;;;;;11.93;10.73;;;1.10;71.00;;;;;;5136820;27;20680;-58
2022/04/04 08:01:39;;;;;;;12.63;11.35;;;1.20;71.60;;;;;;5136643;27;20223;-58
2022/04/04 08:04:06;;;;;;;13.18;11.98;;;1.30;70.90;;;;;;5136773;27;20213;-58
2022/04/04 08:06:32;;;;;;;13.20;11.90;;;1.30;70.50;;;;;;5136422;27;20661;-57
2022/04/04 08:08:59;;;;;;;14.00;12.63;;;1.40;70.90;;;;;;5136641;27;20671;-59
2022/04/04 08:11:26;;;;;;;13.20;12.00;;;1.70;71.90;;;;;;5135161;27;20516;-59
2022/04/04 08:13:53;;;;;;;13.00;11.80;;;1.80;70.30;;;;;;5135305;27;20677;-59
2022/04/04 08:16:25;;;;;;;13.45;12.10;;;1.80;69.50;;;;;;5136248;27;20247;-59
2022/04/04 08:18:52;;;;;;;11.07;9.85;;;1.80;67.20;;;;;;5136171;27;20207;-59
2022/04/04 08:21:19;;;;;;;12.27;10.48;;;1.80;65.90;;;;;;5136050;27;20299;-59
2022/04/04 08:23:46;;;;;;;11.52;10.43;;;1.80;66.30;;;;;;5136249;27;20205;-57
2022/04/04 08:26:13;;;;;;;12.20;11.13;;;1.90;67.00;;;;;;5134894;27;20250;-58
2022/04/04 08:28:40;;;;;;;12.75;10.20;;;2.00;64.80;;;;;;5136113;27;20206;-59
2022/04/04 08:31:07;;;;;;;12.70;11.55;;;2.10;64.70;;;;;;5136022;27;20274;-58
2022/04/04 08:33:37;;;;;;;11.90;10.70;;;2.00;65.90;;;;;;5136232;27;20199;-58
2022/04/04 08:36:04;;;;;;;11.63;10.48;;;1.90;64.50;;;;;;5136076;27;20540;-59
2022/04/04 08:38:32;;;;;;;13.73;12.52;;;1.90;63.50;;;;;;5135825;27;20206;-59
2022/04/04 08:41:03;;;;;;;12.93;11.55;;;2.00;64.00;;;;;;5136033;27;20254;-58
2022/04/04 08:43:36;;;;;;;12.75;11.65;;;1.90;65.20;;;;;;5134898;27;20650;-58
2022/04/04 08:46:05;;;;;;;12.23;11.13;;;2.10;67.80;;;;;;5135899;27;20199;-59
2022/04/04 08:48:32;;;;;;;11.50;10.50;;;2.20;66.00;;;;;;5135790;27;20205;-58
2022/04/04 08:51:00;;;;;;;11.70;10.60;;;2.40;65.20;;;;;;5135757;27;20236;-58
2022/04/04 08:53:27;;;;;;;11.70;10.60;;;2.40;63.90;;;;;;5135371;27;20561;-58
2022/04/04 08:55:56;;;;;;;14.43;13.07;;;2.50;63.90;;;;;;5135584;27;20642;-58
2022/04/04 08:58:23;;;;;;;12.00;10.80;;;2.40;63.20;;;;;;5134401;27;20222;-58
2022/04/04 09:00:50;;;;;;;11.70;10.70;;;2.30;64.20;;;;;;5135253;27;20307;-58
2022/04/04 09:03:21;;;;;;;11.65;10.55;;;2.40;62.00;;;;;;5135517;27;20201;-58
2022/04/04 09:05:52;;;;;;;11.90;10.80;;;2.40;63.30;;;;;;5135517;27;20210;-58
2022/04/04 09:08:23;;;;;;;12.93;11.63;;;2.60;60.70;;;;;;5135340;27;20198;-59
2022/04/04 09:10:54;;;;;;;11.75;10.65;;;2.60;64.80;;;;;;5135154;27;20297;-58
2022/04/04 09:13:23;;;;;;;13.63;12.20;;;2.80;64.70;;;;;;5134030;27;20249;-58
2022/04/04 09:15:55;;;;;;;12.20;11.23;;;2.90;64.40;;;;;;5135166;27;20194;-58
2022/04/04 09:18:49;;;;;;;14.23;12.90;;;2.90;62.10;;;;;;5135141;27;20244;-58
2022/04/04 09:21:33;;;;;;;12.88;11.82;;;3.00;64.80;;;;;;5134998;27;20290;-58
2022/04/04 09:24:07;;;;;;;12.52;11.52;;;3.20;59.20;;;;;;5133633;27;20194;-58
2022/04/04 09:26:37;;;;;;;13.15;12.10;;;3.20;58.00;;;;;;5133824;27;20684;-58
2022/04/04 09:29:08;;;;;;;11.82;10.80;;;3.40;56.40;;;;;;5134926;27;20198;-58
2022/04/04 09:31:35;;;;;;;12.35;11.45;;;3.50;55.20;;;;;;5134684;27;20611;-58
2022/04/04 09:34:04;;;;;;;12.77;11.45;;;3.50;57.40;;;;;;5134839;27;20199;-58
2022/04/04 09:36:32;;;;;;;13.50;12.30;;;3.40;53.20;;;;;;5134996;27;20302;-58
2022/04/04 09:39:08;;;;;;;12.95;11.85;;;3.40;53.50;;;;;;5134896;27;20259;-58
2022/04/04 09:41:36;;;;;;;12.10;11.15;;;3.40;54.10;;;;;;5133420;27;20206;-57
2022/04/04 09:44:05;;;;;;;12.05;11.05;;;3.40;56.70;;;;;;5134863;27;20207;-58
2022/04/04 09:46:35;;;;;;;14.02;12.88;;;3.40;52.20;;;;;;5134763;27;20756;-57
2022/04/04 09:49:04;;;;;;;12.15;11.15;;;3.30;53.20;;;;;;5134714;27;20198;-58
2022/04/04 09:51:43;;;;;;;11.38;10.35;;;3.20;56.00;;;;;;5134641;27;20213;-58
2022/04/04 09:54:17;;;;;;;13.50;12.10;;;3.30;56.60;;;;;;5134634;27;20294;-57
2022/04/04 09:56:46;;;;;;;13.35;12.23;;;3.40;57.40;;;;;;5133124;27;20207;-56
2022/04/04 09:59:14;;;;;;;12.23;10.02;;;3.50;57.20;;;;;;5134557;27;20252;-57
2022/04/04 10:01:43;;;;;;;12.52;11.48;;;3.60;57.10;;;;;;5134403;27;20234;-58
2022/04/04 10:04:12;;;;;;;14.15;12.85;;;3.80;56.80;;;;;;5134433;27;20292;-57
2022/04/04 10:06:40;;;;;;;13.23;11.98;;;4.00;58.40;;;;;;5134370;27;20236;-58
2022/04/04 10:09:07;;;;;;;12.02;11.02;;;4.10;57.90;;;;;;5134024;27;20675;-57
2022/04/04 10:11:38;;;;;;;14.07;12.57;;;4.00;58.30;;;;;;5133064;27;20571;-57
2022/04/04 10:14:06;;;;;;;13.90;12.50;;;3.90;58.20;;;;;;5134496;27;20202;-58
2022/04/04 10:16:34;;;;;;;13.55;12.35;;;3.90;58.00;;;;;;5134303;27;20616;-56
2022/04/04 10:19:01;;;;;;;12.23;11.02;;;3.80;57.70;;;;;;5134040;27;20213;-58
2022/04/04 10:21:29;;;;;;;12.75;11.65;;;3.70;57.90;;;;;;5133799;27;20269;-58
2022/04/04 10:23:58;;;;;;;13.40;12.30;;;3.80;61.30;;;;;;5134068;27;20241;-58
2022/04/04 10:26:29;;;;;;;13.57;12.38;;;3.80;60.80;;;;;;5132681;27;20202;-57
2022/04/04 10:29:12;;;;;;;12.07;10.90;;;3.90;60.70;;;;;;5134061;27;20680;-58
2022/04/04 10:31:47;;;;;;;13.13;12.02;;;4.00;59.90;;;;;;5133865;27;20283;-58
2022/04/04 10:34:16;;;;;;;12.35;11.30;;;4.00;61.20;;;;;;5133983;27;20201;-57
2022/04/04 10:36:58;;;;;;;13.70;12.50;;;4.30;61.90;;;;;;5133354;27;20206;-58
2022/04/04 10:39:42;;;;;;;14.00;12.65;;;4.40;59.30;;;;;;5134148;27;20203;-58
2022/04/04 10:42:27;;;;;;;13.77;12.52;;;4.60;58.20;;;;;;5132558;27;20199;-56
2022/04/04 10:45:01;;;;;;;13.80;12.75;;;4.80;60.40;;;;;;5133820;27;20290;-55
2022/04/04 10:47:31;;;;;;;14.35;13.30;;;5.00;59.40;;;;;;5133692;27;20673;-55
2022/04/04 10:50:16;;;;;;;14.02;12.90;;;5.10;59.00;;;;;;5133561;27;20640;-56
2022/04/04 10:52:44;;;;;;;13.45;12.35;;;5.20;58.60;;;;;;5133651;27;20289;-58
2022/04/04 10:55:54;;;;;;;14.07;12.68;;;5.00;59.40;;;;;;5133613;27;20214;-58
2022/04/04 10:58:26;;;;;;;12.13;11.20;;;5.10;58.10;;;;;;5132421;27;20286;-58
2022/04/04 11:00:57;;;;;;;13.05;12.15;;;5.20;55.70;;;;;;5133423;27;20268;-59
2022/04/04 11:03:29;;;;;;;12.40;11.52;;;5.30;55.00;;;;;;5133420;27;20203;-59
2022/04/04 11:09:08;;;;;;;12.20;11.20;;;5.20;55.60;;;;;;5133559;28;20197;-59
2022/04/04 11:11:42;;;;;;;12.48;11.35;;;5.20;53.60;;;;;;5132142;27;20293;-59
2022/04/04 11:14:09;;;;;;;11.45;10.65;;;5.20;54.90;;;;;;5133441;27;20199;-59
2022/04/04 11:17:08;;;;;;;12.43;11.43;;;5.20;52.30;;;;;;5133459;27;20289;-59
2022/04/04 11:19:45;;;;;;;12.98;11.88;;;5.40;53.10;;;;;;5133218;27;20208;-60
2022/04/04 11:22:14;;;;;;;12.10;11.18;;;6.10;54.80;;;;;;5133453;27;20217;-58
2022/04/04 11:24:42;;;;;;;12.82;11.82;;;7.50;48.60;;;;;;5133283;27;20199;-60
2022/04/04 11:27:18;;;;;;;12.15;11.35;;;8.40;47.40;;;;;;5132122;27;20203;-59
2022/04/04 11:29:45;;;;;;;12.65;11.63;;;9.80;49.60;;;;;;5133184;27;20285;-60
2022/04/04 11:32:16;;;;;;;11.98;11.18;;;9.40;43.30;;;;;;5133484;27;20294;-59
2022/04/04 11:34:45;;;;;;;13.95;12.63;;;8.90;45.80;;;;;;5133245;27;20562;-60
2022/04/04 11:37:17;;;;;;;13.25;12.25;;;8.80;48.30;;;;;;5133197;27;20286;-59
2022/04/04 11:39:46;;;;;;;12.63;11.52;;;8.50;45.00;;;;;;5133448;27;20199;-59
2022/04/04 11:42:14;;;;;;;12.75;11.85;;;8.60;47.20;;;;;;5131929;27;20203;-58
2022/04/04 11:44:46;;;;;;;12.90;11.90;;;8.30;45.20;;;;;;5133354;27;20199;-60
2022/04/04 11:47:14;;;;;;;13.73;12.73;;;8.00;47.70;;;;;;5133546;27;20668;-57
2022/04/04 11:49:43;;;;;;;12.88;11.88;;;7.70;47.40;;;;;;5137010;27;20222;-56
2022/04/04 11:52:15;;;;;;;13.02;11.88;;;7.40;49.00;;;;;;5136977;27;20687;-58
2022/04/04 11:54:43;;;;;;;12.93;11.98;;;6.90;48.10;;;;;;5136916;27;20657;-58
2022/04/04 11:57:10;;;;;;;12.98;11.98;;;6.60;51.50;;;;;;5135579;27;20290;-58
2022/04/04 11:59:41;;;;;;;13.27;12.18;;;6.60;54.00;;;;;;5136782;27;20203;-60
2022/04/04 12:02:09;;;;;;;12.50;11.50;;;6.30;51.50;;;;;;5136784;27;20241;-58
2022/04/04 12:04:36;;;;;;;11.38;10.48;;;6.20;51.70;;;;;;5136806;27;20202;-59
2022/04/04 12:07:04;;;;;;;14.10;13.00;;;6.40;53.30;;;;;;5136546;27;20657;-56
2022/04/04 12:09:33;;;;;;;13.50;12.40;;;6.70;53.80;;;;;;5136767;27;20203;-56
2022/04/04 12:12:05;;;;;;;12.75;11.85;;;7.00;53.90;;;;;;5135356;27;20294;-59
2022/04/04 12:14:34;;;;;;;12.70;11.70;;;7.50;55.20;;;;;;5136534;27;20303;-60
2022/04/04 12:17:01;;;;;;;12.50;11.60;;;7.70;50.80;;;;;;5136823;27;20237;-59
2022/04/04 12:19:28;;;;;;;11.13;10.13;;;7.80;54.60;;;;;;5136556;27;20587;-59
2022/04/04 12:21:57;;;;;;;13.63;12.48;;;7.90;51.10;;;;;;5136410;27;20852;-59
2022/04/04 12:27:12;;;;;;;12.55;11.68;;;7.50;49.10;;;;;;5135111;27;20232;-56
2022/04/04 12:29:43;;;;;;;12.82;11.70;;;7.10;49.90;;;;;;5136331;27;20562;-57
2022/04/04 12:32:19;;;;;;;13.00;12.02;;;6.90;51.90;;;;;;5136153;27;20289;-56
2022/04/04 12:34:56;;;;;;;13.85;12.93;;;6.90;54.90;;;;;;5136154;27;20726;-56
2022/04/04 12:37:34;;;;;;;12.02;11.13;;;6.80;51.90;;;;;;5136150;27;20279;-58
2022/04/04 12:40:15;;;;;;;13.75;12.65;;;6.90;51.60;;;;;;5136161;27;20292;-59
2022/04/04 12:42:44;;;;;;;14.63;13.43;;;6.80;51.50;;;;;;5134828;27;20199;-60
2022/04/04 12:45:11;;;;;;;14.85;13.73;;;6.70;54.40;;;;;;5136085;27;20297;-59
2022/04/04 12:47:54;;;;;;;12.20;11.07;;;6.60;53.60;;;;;;5135933;27;20201;-59